Terminal Aerodrome Forecast
Issued by NWS

Home | Current Version | Previous Version | Text Only | Print | Product List | Glossary On
Versions: 1 2 3 4 5 6 7 8 9 10 11 12 13 14 15 16 17 18 19
000
FTAK31 PAJN 292327
TAFAGY
TAF
PAGY 292327Z 3000/3024 20020G30KT P6SM VCSH BKN050 OVC070
     FM300400 20015G22KT P6SM VCSH FEW020 OVC050
     FM300600 20010KT P6SM VCSH SCT020 OVC050
     FM301200 20005KT P6SM VCSH SCT020 OVC050
     FM302000 21010KT P6SM SCT050 BKN250
      AMD LTD TO CLD VIS AND WIND=

USA.gov is the U.S. government's official web portal to all federal, state and local government web resources and services.